sensor_id;sensor_type;location;lat;lon;timestamp;temperature;humidity
27409;DHT22;20413;50.782;7.152;2023-04-03T00:00:09;4.80;99.90
27409;DHT22;20413;50.782;7.152;2023-04-03T00:02:35;4.80;99.90
27409;DHT22;20413;50.782;7.152;2023-04-03T00:05:01;4.80;99.90
27409;DHT22;20413;50.782;7.152;2023-04-03T00:07:26;4.80;99.90
27409;DHT22;20413;50.782;7.152;2023-04-03T00:09:52;4.80;99.90
27409;DHT22;20413;50.782;7.152;2023-04-03T00:12:17;4.80;99.90
27409;DHT22;20413;50.782;7.152;2023-04-03T00:14:43;4.80;99.90
27409;DHT22;20413;50.782;7.152;2023-04-03T00:17:08;4.90;99.90
27409;DHT22;20413;50.782;7.152;2023-04-03T00:19:34;5.00;99.90
27409;DHT22;20413;50.782;7.152;2023-04-03T00:22:00;4.90;99.90
27409;DHT22;20413;50.782;7.152;2023-04-03T00:24:26;4.90;99.90
27409;DHT22;20413;50.782;7.152;2023-04-03T00:26:51;4.90;99.90
27409;DHT22;20413;50.782;7.152;2023-04-03T00:29:17;4.90;99.90
27409;DHT22;20413;50.782;7.152;2023-04-03T00:31:42;4.90;99.90
27409;DHT22;20413;50.782;7.152;2023-04-03T00:34:08;4.80;99.90
27409;DHT22;20413;50.782;7.152;2023-04-03T00:36:33;4.90;99.90
27409;DHT22;20413;50.782;7.152;2023-04-03T00:38:59;4.90;99.90
27409;DHT22;20413;50.782;7.152;2023-04-03T00:41:25;4.90;99.90
27409;DHT22;20413;50.782;7.152;2023-04-03T00:43:51;4.90;99.90
27409;DHT22;20413;50.782;7.152;2023-04-03T00:46:17;4.80;99.90
27409;DHT22;20413;50.782;7.152;2023-04-03T00:48:47;4.90;99.90
27409;DHT22;20413;50.782;7.152;2023-04-03T00:51:19;4.90;99.90
27409;DHT22;20413;50.782;7.152;2023-04-03T00:53:52;4.90;99.90
27409;DHT22;20413;50.782;7.152;2023-04-03T00:56:23;4.90;99.90
27409;DHT22;20413;50.782;7.152;2023-04-03T00:59:15;4.80;99.90
27409;DHT22;20413;50.782;7.152;2023-04-03T01:01:42;4.90;99.90
27409;DHT22;20413;50.782;7.152;2023-04-03T01:04:34;4.90;99.90
27409;DHT22;20413;50.782;7.152;2023-04-03T01:07:09;4.80;99.90
27409;DHT22;20413;50.782;7.152;2023-04-03T01:09:36;4.80;99.90
27409;DHT22;20413;50.782;7.152;2023-04-03T01:12:24;4.70;99.90
27409;DHT22;20413;50.782;7.152;2023-04-03T01:14:55;4.70;99.90
27409;DHT22;20413;50.782;7.152;2023-04-03T01:25:42;4.60;99.90
27409;DHT22;20413;50.782;7.152;2023-04-03T01:28:12;4.60;99.90
27409;DHT22;20413;50.782;7.152;2023-04-03T01:33:43;4.50;99.90
27409;DHT22;20413;50.782;7.152;2023-04-03T01:36:10;4.40;99.90
27409;DHT22;20413;50.782;7.152;2023-04-03T01:38:36;4.30;99.90
27409;DHT22;20413;50.782;7.152;2023-04-03T01:41:01;4.30;99.90
27409;DHT22;20413;50.782;7.152;2023-04-03T01:43:27;4.30;99.90
27409;DHT22;20413;50.782;7.152;2023-04-03T01:45:52;4.20;99.90
27409;DHT22;20413;50.782;7.152;2023-04-03T01:48:20;4.20;99.90
27409;DHT22;20413;50.782;7.152;2023-04-03T01:50:45;4.10;99.90
27409;DHT22;20413;50.782;7.152;2023-04-03T01:53:11;4.10;99.90
27409;DHT22;20413;50.782;7.152;2023-04-03T01:55:37;4.10;99.90
27409;DHT22;20413;50.782;7.152;2023-04-03T01:58:02;4.00;99.90
27409;DHT22;20413;50.782;7.152;2023-04-03T02:00:28;4.00;99.90
27409;DHT22;20413;50.782;7.152;2023-04-03T02:02:53;4.00;99.90
27409;DHT22;20413;50.782;7.152;2023-04-03T02:05:19;4.00;99.90
27409;DHT22;20413;50.782;7.152;2023-04-03T02:07:44;3.90;99.90
27409;DHT22;20413;50.782;7.152;2023-04-03T02:10:11;3.90;99.90
27409;DHT22;20413;50.782;7.152;2023-04-03T02:12:36;3.90;99.90
27409;DHT22;20413;50.782;7.152;2023-04-03T02:15:02;3.80;99.90
27409;DHT22;20413;50.782;7.152;2023-04-03T02:17:28;3.70;99.90
27409;DHT22;20413;50.782;7.152;2023-04-03T02:19:53;3.60;99.90
27409;DHT22;20413;50.782;7.152;2023-04-03T02:22:19;3.60;99.90
27409;DHT22;20413;50.782;7.152;2023-04-03T02:24:45;3.50;99.90
27409;DHT22;20413;50.782;7.152;2023-04-03T02:27:11;3.50;99.90
27409;DHT22;20413;50.782;7.152;2023-04-03T02:29:36;3.50;99.90
27409;DHT22;20413;50.782;7.152;2023-04-03T02:32:02;3.50;99.90
27409;DHT22;20413;50.782;7.152;2023-04-03T02:34:28;3.40;99.90
27409;DHT22;20413;50.782;7.152;2023-04-03T02:36:53;3.40;99.90
27409;DHT22;20413;50.782;7.152;2023-04-03T02:39:19;3.40;99.90
27409;DHT22;20413;50.782;7.152;2023-04-03T02:41:44;3.40;99.90
27409;DHT22;20413;50.782;7.152;2023-04-03T02:44:11;3.40;99.90
27409;DHT22;20413;50.782;7.152;2023-04-03T02:46:36;3.40;99.90
27409;DHT22;20413;50.782;7.152;2023-04-03T02:49:02;3.40;99.90
27409;DHT22;20413;50.782;7.152;2023-04-03T02:51:28;3.40;99.90
27409;DHT22;20413;50.782;7.152;2023-04-03T02:53:53;3.30;99.90
27409;DHT22;20413;50.782;7.152;2023-04-03T02:56:19;3.30;99.90
27409;DHT22;20413;50.782;7.152;2023-04-03T02:58:45;3.30;99.90
27409;DHT22;20413;50.782;7.152;2023-04-03T03:01:11;3.20;99.90
27409;DHT22;20413;50.782;7.152;2023-04-03T03:03:37;3.20;99.90
27409;DHT22;20413;50.782;7.152;2023-04-03T03:06:11;3.10;99.90
27409;DHT22;20413;50.782;7.152;2023-04-03T03:08:37;3.00;99.90
27409;DHT22;20413;50.782;7.152;2023-04-03T03:11:04;3.00;99.90
27409;DHT22;20413;50.782;7.152;2023-04-03T03:13:30;2.90;99.90
27409;DHT22;20413;50.782;7.152;2023-04-03T03:15:56;2.90;99.90
27409;DHT22;20413;50.782;7.152;2023-04-03T03:18:22;2.80;99.90
27409;DHT22;20413;50.782;7.152;2023-04-03T03:20:52;2.70;99.90
27409;DHT22;20413;50.782;7.152;2023-04-03T03:23:18;2.60;99.90
27409;DHT22;20413;50.782;7.152;2023-04-03T03:25:44;2.60;99.90
27409;DHT22;20413;50.782;7.152;2023-04-03T03:28:09;2.50;99.90
27409;DHT22;20413;50.782;7.152;2023-04-03T03:30:35;2.40;99.90
27409;DHT22;20413;50.782;7.152;2023-04-03T03:33:01;2.30;99.90
27409;DHT22;20413;50.782;7.152;2023-04-03T03:35:26;2.20;99.90
27409;DHT22;20413;50.782;7.152;2023-04-03T03:37:52;2.20;99.90
27409;DHT22;20413;50.782;7.152;2023-04-03T03:40:18;2.10;99.90
27409;DHT22;20413;50.782;7.152;2023-04-03T03:42:43;2.10;99.90
27409;DHT22;20413;50.782;7.152;2023-04-03T03:45:09;2.00;99.90
27409;DHT22;20413;50.782;7.152;2023-04-03T03:47:35;2.00;99.90
27409;DHT22;20413;50.782;7.152;2023-04-03T03:50:01;2.00;99.90
27409;DHT22;20413;50.782;7.152;2023-04-03T03:52:26;1.90;99.90
27409;DHT22;20413;50.782;7.152;2023-04-03T03:54:52;2.00;99.90
27409;DHT22;20413;50.782;7.152;2023-04-03T03:57:18;1.90;99.90
27409;DHT22;20413;50.782;7.152;2023-04-03T03:59:43;1.90;99.90
27409;DHT22;20413;50.782;7.152;2023-04-03T04:02:10;1.80;99.90
27409;DHT22;20413;50.782;7.152;2023-04-03T04:04:36;1.80;99.90
27409;DHT22;20413;50.782;7.152;2023-04-03T04:07:02;1.80;99.90
27409;DHT22;20413;50.782;7.152;2023-04-03T04:09:28;1.70;99.90
27409;DHT22;20413;50.782;7.152;2023-04-03T04:11:53;1.70;99.90
27409;DHT22;20413;50.782;7.152;2023-04-03T04:14:19;1.70;99.90
27409;DHT22;20413;50.782;7.152;2023-04-03T04:16:48;1.70;99.90
27409;DHT22;20413;50.782;7.152;2023-04-03T04:19:14;1.60;99.90
27409;DHT22;20413;50.782;7.152;2023-04-03T04:21:40;1.60;99.90
27409;DHT22;20413;50.782;7.152;2023-04-03T04:24:07;1.60;99.90
27409;DHT22;20413;50.782;7.152;2023-04-03T04:26:33;1.60;99.90
27409;DHT22;20413;50.782;7.152;2023-04-03T04:28:58;1.60;99.90
27409;DHT22;20413;50.782;7.152;2023-04-03T04:31:24;1.60;99.90
27409;DHT22;20413;50.782;7.152;2023-04-03T04:33:49;1.50;99.90
27409;DHT22;20413;50.782;7.152;2023-04-03T04:36:15;1.50;99.90
27409;DHT22;20413;50.782;7.152;2023-04-03T04:38:41;1.50;99.90
27409;DHT22;20413;50.782;7.152;2023-04-03T04:41:07;1.50;99.90
27409;DHT22;20413;50.782;7.152;2023-04-03T04:43:33;1.50;99.90
27409;DHT22;20413;50.782;7.152;2023-04-03T04:46:09;1.50;99.90
27409;DHT22;20413;50.782;7.152;2023-04-03T04:48:37;1.60;99.90
27409;DHT22;20413;50.782;7.152;2023-04-03T04:51:03;1.50;99.90
27409;DHT22;20413;50.782;7.152;2023-04-03T04:53:29;1.50;99.90
27409;DHT22;20413;50.782;7.152;2023-04-03T04:55:55;1.50;99.90
27409;DHT22;20413;50.782;7.152;2023-04-03T04:58:21;1.50;99.90
27409;DHT22;20413;50.782;7.152;2023-04-03T05:00:46;1.50;99.90
27409;DHT22;20413;50.782;7.152;2023-04-03T05:03:12;1.50;99.90
27409;DHT22;20413;50.782;7.152;2023-04-03T05:05:38;1.50;99.90
27409;DHT22;20413;50.782;7.152;2023-04-03T05:08:04;1.50;99.90
27409;DHT22;20413;50.782;7.152;2023-04-03T05:10:30;1.50;99.90
27409;DHT22;20413;50.782;7.152;2023-04-03T05:12:56;1.50;99.90
27409;DHT22;20413;50.782;7.152;2023-04-03T05:15:22;1.60;99.90
27409;DHT22;20413;50.782;7.152;2023-04-03T05:17:48;1.60;99.90
27409;DHT22;20413;50.782;7.152;2023-04-03T05:20:13;1.60;99.90
27409;DHT22;20413;50.782;7.152;2023-04-03T05:22:39;1.60;99.90
27409;DHT22;20413;50.782;7.152;2023-04-03T05:25:05;1.50;99.90
27409;DHT22;20413;50.782;7.152;2023-04-03T05:27:31;1.50;99.90
27409;DHT22;20413;50.782;7.152;2023-04-03T05:29:57;1.50;99.90
27409;DHT22;20413;50.782;7.152;2023-04-03T05:32:23;1.60;99.90
27409;DHT22;20413;50.782;7.152;2023-04-03T05:34:50;1.80;99.90
27409;DHT22;20413;50.782;7.152;2023-04-03T05:37:17;2.10;99.90
27409;DHT22;20413;50.782;7.152;2023-04-03T05:39:42;2.20;99.90
27409;DHT22;20413;50.782;7.152;2023-04-03T05:42:08;2.20;99.90
27409;DHT22;20413;50.782;7.152;2023-04-03T05:44:33;2.20;99.90
27409;DHT22;20413;50.782;7.152;2023-04-03T05:46:59;2.20;99.90
27409;DHT22;20413;50.782;7.152;2023-04-03T05:49:25;2.10;99.90
27409;DHT22;20413;50.782;7.152;2023-04-03T05:51:51;2.10;99.90
27409;DHT22;20413;50.782;7.152;2023-04-03T05:54:28;2.10;99.90
27409;DHT22;20413;50.782;7.152;2023-04-03T05:56:53;2.10;99.90
27409;DHT22;20413;50.782;7.152;2023-04-03T05:59:19;2.10;99.90
27409;DHT22;20413;50.782;7.152;2023-04-03T06:01:46;2.10;99.90
27409;DHT22;20413;50.782;7.152;2023-04-03T06:04:12;2.20;99.90
27409;DHT22;20413;50.782;7.152;2023-04-03T06:09:14;2.30;99.90
27409;DHT22;20413;50.782;7.152;2023-04-03T06:11:41;2.90;99.90
27409;DHT22;20413;50.782;7.152;2023-04-03T06:14:07;3.70;99.90
27409;DHT22;20413;50.782;7.152;2023-04-03T06:16:33;4.70;99.90
27409;DHT22;20413;50.782;7.152;2023-04-03T06:18:59;5.70;99.90
27409;DHT22;20413;50.782;7.152;2023-04-03T06:21:24;6.70;99.90
27409;DHT22;20413;50.782;7.152;2023-04-03T06:23:50;7.50;99.90
27409;DHT22;20413;50.782;7.152;2023-04-03T06:26:16;8.40;99.90
27409;DHT22;20413;50.782;7.152;2023-04-03T06:28:42;8.80;99.90
27409;DHT22;20413;50.782;7.152;2023-04-03T06:31:08;9.30;99.90
27409;DHT22;20413;50.782;7.152;2023-04-03T06:33:34;9.80;99.90
27409;DHT22;20413;50.782;7.152;2023-04-03T06:36:04;10.10;99.90
27409;DHT22;20413;50.782;7.152;2023-04-03T06:38:33;10.30;99.90
27409;DHT22;20413;50.782;7.152;2023-04-03T06:40:59;10.40;99.90
27409;DHT22;20413;50.782;7.152;2023-04-03T06:43:25;10.40;99.90
27409;DHT22;20413;50.782;7.152;2023-04-03T06:45:51;11.00;99.90
27409;DHT22;20413;50.782;7.152;2023-04-03T06:48:17;11.10;99.90
27409;DHT22;20413;50.782;7.152;2023-04-03T06:50:43;10.80;99.90
27409;DHT22;20413;50.782;7.152;2023-04-03T06:53:09;11.00;99.90
27409;DHT22;20413;50.782;7.152;2023-04-03T06:55:35;11.20;99.90
27409;DHT22;20413;50.782;7.152;2023-04-03T06:58:01;11.60;99.90
27409;DHT22;20413;50.782;7.152;2023-04-03T07:00:27;11.90;99.90
27409;DHT22;20413;50.782;7.152;2023-04-03T07:02:53;11.80;99.90
27409;DHT22;20413;50.782;7.152;2023-04-03T07:05:18;12.30;99.90
27409;DHT22;20413;50.782;7.152;2023-04-03T07:07:44;12.60;99.90
27409;DHT22;20413;50.782;7.152;2023-04-03T07:10:10;12.80;99.90
27409;DHT22;20413;50.782;7.152;2023-04-03T07:12:36;12.80;99.90
27409;DHT22;20413;50.782;7.152;2023-04-03T07:15:04;12.80;99.90
27409;DHT22;20413;50.782;7.152;2023-04-03T07:17:30;12.90;99.90
27409;DHT22;20413;50.782;7.152;2023-04-03T07:19:56;12.70;99.90
27409;DHT22;20413;50.782;7.152;2023-04-03T07:22:22;12.80;99.90
27409;DHT22;20413;50.782;7.152;2023-04-03T07:24:47;12.70;99.90
27409;DHT22;20413;50.782;7.152;2023-04-03T07:27:13;13.20;99.90
27409;DHT22;20413;50.782;7.152;2023-04-03T07:29:39;13.50;99.90
27409;DHT22;20413;50.782;7.152;2023-04-03T07:32:05;13.50;99.90
27409;DHT22;20413;50.782;7.152;2023-04-03T07:34:32;13.80;99.90
27409;DHT22;20413;50.782;7.152;2023-04-03T07:36:58;13.80;99.90
27409;DHT22;20413;50.782;7.152;2023-04-03T07:39:24;13.70;99.70
27409;DHT22;20413;50.782;7.152;2023-04-03T07:41:50;13.90;99.50
27409;DHT22;20413;50.782;7.152;2023-04-03T07:44:17;13.90;99.40
27409;DHT22;20413;50.782;7.152;2023-04-03T07:46:42;14.20;98.70
27409;DHT22;20413;50.782;7.152;2023-04-03T07:49:08;14.30;99.10
27409;DHT22;20413;50.782;7.152;2023-04-03T07:51:34;14.80;98.50
27409;DHT22;20413;50.782;7.152;2023-04-03T07:54:00;15.20;96.70
27409;DHT22;20413;50.782;7.152;2023-04-03T07:56:25;14.70;97.50
27409;DHT22;20413;50.782;7.152;2023-04-03T07:58:51;14.70;97.40
27409;DHT22;20413;50.782;7.152;2023-04-03T08:01:16;14.40;97.70
27409;DHT22;20413;50.782;7.152;2023-04-03T08:03:42;14.60;98.40
27409;DHT22;20413;50.782;7.152;2023-04-03T08:06:08;14.60;98.00
27409;DHT22;20413;50.782;7.152;2023-04-03T08:08:35;14.80;96.60
27409;DHT22;20413;50.782;7.152;2023-04-03T08:11:01;15.00;97.40
27409;DHT22;20413;50.782;7.152;2023-04-03T08:13:29;15.20;96.40
27409;DHT22;20413;50.782;7.152;2023-04-03T08:15:55;14.90;97.20
27409;DHT22;20413;50.782;7.152;2023-04-03T08:18:23;15.50;95.90
27409;DHT22;20413;50.782;7.152;2023-04-03T08:20:50;15.80;95.00
27409;DHT22;20413;50.782;7.152;2023-04-03T08:23:17;15.90;94.80
27409;DHT22;20413;50.782;7.152;2023-04-03T08:25:43;15.80;95.00
27409;DHT22;20413;50.782;7.152;2023-04-03T08:28:12;16.10;95.20
27409;DHT22;20413;50.782;7.152;2023-04-03T08:30:41;15.70;93.40
27409;DHT22;20413;50.782;7.152;2023-04-03T08:33:08;16.00;93.90
27409;DHT22;20413;50.782;7.152;2023-04-03T08:35:38;16.20;93.30
27409;DHT22;20413;50.782;7.152;2023-04-03T08:38:04;13.70;94.20
27409;DHT22;20413;50.782;7.152;2023-04-03T08:40:29;13.70;94.70
27409;DHT22;20413;50.782;7.152;2023-04-03T08:45:50;12.80;96.30
27409;DHT22;20413;50.782;7.152;2023-04-03T08:51:10;15.00;93.00
27409;DHT22;20413;50.782;7.152;2023-04-03T08:53:43;14.80;93.00
27409;DHT22;20413;50.782;7.152;2023-04-03T08:56:11;15.10;93.30
27409;DHT22;20413;50.782;7.152;2023-04-03T08:58:49;15.50;93.30
27409;DHT22;20413;50.782;7.152;2023-04-03T09:03:44;15.10;93.30
27409;DHT22;20413;50.782;7.152;2023-04-03T09:06:25;14.90;93.70
27409;DHT22;20413;50.782;7.152;2023-04-03T09:12:24;15.90;91.50
27409;DHT22;20413;50.782;7.152;2023-04-03T09:20:17;15.00;91.90
27409;DHT22;20413;50.782;7.152;2023-04-03T09:22:45;14.10;91.80
27409;DHT22;20413;50.782;7.152;2023-04-03T09:25:18;14.00;92.70
27409;DHT22;20413;50.782;7.152;2023-04-03T09:27:45;14.10;91.90
27409;DHT22;20413;50.782;7.152;2023-04-03T09:30:23;13.80;92.20
27409;DHT22;20413;50.782;7.152;2023-04-03T09:32:54;13.40;92.70
27409;DHT22;20413;50.782;7.152;2023-04-03T09:37:50;13.70;92.10
27409;DHT22;20413;50.782;7.152;2023-04-03T09:42:59;13.40;93.60
27409;DHT22;20413;50.782;7.152;2023-04-03T09:45:31;14.30;93.40
27409;DHT22;20413;50.782;7.152;2023-04-03T09:50:37;15.20;91.40
27409;DHT22;20413;50.782;7.152;2023-04-03T09:53:11;14.10;90.80
27409;DHT22;20413;50.782;7.152;2023-04-03T09:55:50;13.60;91.80
27409;DHT22;20413;50.782;7.152;2023-04-03T09:58:34;14.10;90.70
27409;DHT22;20413;50.782;7.152;2023-04-03T10:01:03;14.30;90.20
27409;DHT22;20413;50.782;7.152;2023-04-03T10:03:34;14.50;90.90
27409;DHT22;20413;50.782;7.152;2023-04-03T10:06:01;15.10;90.40
27409;DHT22;20413;50.782;7.152;2023-04-03T10:08:32;15.30;89.80
27409;DHT22;20413;50.782;7.152;2023-04-03T10:11:17;16.50;86.10
27409;DHT22;20413;50.782;7.152;2023-04-03T10:13:59;16.10;84.60
27409;DHT22;20413;50.782;7.152;2023-04-03T10:16:46;15.60;85.00
27409;DHT22;20413;50.782;7.152;2023-04-03T10:19:47;14.90;84.90
27409;DHT22;20413;50.782;7.152;2023-04-03T10:22:20;15.00;85.60
27409;DHT22;20413;50.782;7.152;2023-04-03T10:35:37;17.80;76.20
27409;DHT22;20413;50.782;7.152;2023-04-03T10:38:17;17.80;76.60
27409;DHT22;20413;50.782;7.152;2023-04-03T10:43:45;16.70;76.90
27409;DHT22;20413;50.782;7.152;2023-04-03T10:46:32;17.40;74.90
27409;DHT22;20413;50.782;7.152;2023-04-03T10:54:49;16.20;95.70
27409;DHT22;20413;50.782;7.152;2023-04-03T10:57:18;16.80;76.30
27409;DHT22;20413;50.782;7.152;2023-04-03T10:59:50;16.80;76.90
27409;DHT22;20413;50.782;7.152;2023-04-03T11:04:55;17.50;74.20
27409;DHT22;20413;50.782;7.152;2023-04-03T11:07:33;17.60;72.00
27409;DHT22;20413;50.782;7.152;2023-04-03T11:13:15;16.90;73.90
27409;DHT22;20413;50.782;7.152;2023-04-03T11:15:44;16.70;75.20
27409;DHT22;20413;50.782;7.152;2023-04-03T11:18:46;15.90;76.30
27409;DHT22;20413;50.782;7.152;2023-04-03T11:21:29;16.00;73.50
27409;DHT22;20413;50.782;7.152;2023-04-03T11:23:57;16.40;73.60
27409;DHT22;20413;50.782;7.152;2023-04-03T11:26:31;18.20;74.40
27409;DHT22;20413;50.782;7.152;2023-04-03T11:29:10;18.30;65.80
27409;DHT22;20413;50.782;7.152;2023-04-03T14:19:57;20.10;55.00
27409;DHT22;20413;50.782;7.152;2023-04-03T14:22:26;19.00;57.00
27409;DHT22;20413;50.782;7.152;2023-04-03T14:24:53;19.00;58.10
27409;DHT22;20413;50.782;7.152;2023-04-03T14:27:26;19.60;57.00
27409;DHT22;20413;50.782;7.152;2023-04-03T14:29:53;19.30;56.70
27409;DHT22;20413;50.782;7.152;2023-04-03T14:32:23;19.70;56.00
27409;DHT22;20413;50.782;7.152;2023-04-03T14:34:51;20.10;55.20
27409;DHT22;20413;50.782;7.152;2023-04-03T14:37:23;20.00;57.60
27409;DHT22;20413;50.782;7.152;2023-04-03T14:39:50;19.20;56.70
27409;DHT22;20413;50.782;7.152;2023-04-03T14:42:22;17.80;58.10
27409;DHT22;20413;50.782;7.152;2023-04-03T14:44:50;17.20;59.30
27409;DHT22;20413;50.782;7.152;2023-04-03T14:47:19;17.80;59.20
27409;DHT22;20413;50.782;7.152;2023-04-03T14:49:46;18.10;58.00
27409;DHT22;20413;50.782;7.152;2023-04-03T14:52:25;19.10;59.20
27409;DHT22;20413;50.782;7.152;2023-04-03T14:54:52;19.30;57.30
27409;DHT22;20413;50.782;7.152;2023-04-03T14:57:18;19.90;56.60
27409;DHT22;20413;50.782;7.152;2023-04-03T14:59:45;18.70;57.30
27409;DHT22;20413;50.782;7.152;2023-04-03T15:02:31;19.50;58.30
27409;DHT22;20413;50.782;7.152;2023-04-03T15:04:57;19.40;56.70
27409;DHT22;20413;50.782;7.152;2023-04-03T15:07:25;18.90;57.90
27409;DHT22;20413;50.782;7.152;2023-04-03T15:09:52;18.60;57.50
27409;DHT22;20413;50.782;7.152;2023-04-03T15:12:18;18.90;57.50
27409;DHT22;20413;50.782;7.152;2023-04-03T15:14:43;19.20;57.90
27409;DHT22;20413;50.782;7.152;2023-04-03T15:17:22;18.70;58.10
27409;DHT22;20413;50.782;7.152;2023-04-03T15:19:48;18.70;58.20
27409;DHT22;20413;50.782;7.152;2023-04-03T15:22:18;18.00;57.40
27409;DHT22;20413;50.782;7.152;2023-04-03T15:24:44;17.40;59.50
27409;DHT22;20413;50.782;7.152;2023-04-03T15:27:10;17.60;59.70
27409;DHT22;20413;50.782;7.152;2023-04-03T15:29:37;16.90;59.90
27409;DHT22;20413;50.782;7.152;2023-04-03T15:32:04;17.20;59.70
27409;DHT22;20413;50.782;7.152;2023-04-03T15:34:30;17.70;58.70
27409;DHT22;20413;50.782;7.152;2023-04-03T15:36:56;17.30;58.80
27409;DHT22;20413;50.782;7.152;2023-04-03T15:39:22;17.70;59.60
27409;DHT22;20413;50.782;7.152;2023-04-03T15:41:48;18.40;58.80
27409;DHT22;20413;50.782;7.152;2023-04-03T15:44:14;18.50;58.30
27409;DHT22;20413;50.782;7.152;2023-04-03T15:46:43;18.90;59.20
27409;DHT22;20413;50.782;7.152;2023-04-03T15:49:09;19.10;58.90
27409;DHT22;20413;50.782;7.152;2023-04-03T15:51:35;18.60;57.80
27409;DHT22;20413;50.782;7.152;2023-04-03T15:54:01;18.50;63.00
27409;DHT22;20413;50.782;7.152;2023-04-03T15:56:26;18.70;59.70
27409;DHT22;20413;50.782;7.152;2023-04-03T15:58:52;18.50;58.20
27409;DHT22;20413;50.782;7.152;2023-04-03T16:01:17;18.30;59.40
27409;DHT22;20413;50.782;7.152;2023-04-03T16:03:43;18.20;58.00
27409;DHT22;20413;50.782;7.152;2023-04-03T16:06:15;17.90;58.30
27409;DHT22;20413;50.782;7.152;2023-04-03T16:08:41;18.00;58.20
27409;DHT22;20413;50.782;7.152;2023-04-03T16:11:07;17.90;60.10
27409;DHT22;20413;50.782;7.152;2023-04-03T16:13:33;18.00;58.20
27409;DHT22;20413;50.782;7.152;2023-04-03T16:16:00;18.00;58.00
27409;DHT22;20413;50.782;7.152;2023-04-03T16:18:27;17.60;58.60
27409;DHT22;20413;50.782;7.152;2023-04-03T16:20:53;17.50;58.90
27409;DHT22;20413;50.782;7.152;2023-04-03T16:23:20;17.30;59.90
27409;DHT22;20413;50.782;7.152;2023-04-03T16:25:46;17.30;95.20
27409;DHT22;20413;50.782;7.152;2023-04-03T16:28:16;16.70;95.60
27409;DHT22;20413;50.782;7.152;2023-04-03T16:30:44;15.90;85.00
27409;DHT22;20413;50.782;7.152;2023-04-03T16:33:11;15.60;62.00
27409;DHT22;20413;50.782;7.152;2023-04-03T16:35:37;15.70;63.30
27409;DHT22;20413;50.782;7.152;2023-04-03T16:38:03;15.60;62.50
27409;DHT22;20413;50.782;7.152;2023-04-03T16:40:29;15.80;62.70
27409;DHT22;20413;50.782;7.152;2023-04-03T16:42:55;15.50;61.40
27409;DHT22;20413;50.782;7.152;2023-04-03T16:45:21;16.00;62.50
27409;DHT22;20413;50.782;7.152;2023-04-03T16:47:46;15.90;62.00
27409;DHT22;20413;50.782;7.152;2023-04-03T16:50:12;15.60;62.50
27409;DHT22;20413;50.782;7.152;2023-04-03T16:52:38;15.30;62.60
27409;DHT22;20413;50.782;7.152;2023-04-03T16:55:04;14.80;69.80
27409;DHT22;20413;50.782;7.152;2023-04-03T16:57:33;14.40;66.00
27409;DHT22;20413;50.782;7.152;2023-04-03T16:59:58;14.20;66.40
27409;DHT22;20413;50.782;7.152;2023-04-03T17:02:24;14.30;66.90
27409;DHT22;20413;50.782;7.152;2023-04-03T17:04:51;13.80;67.10
27409;DHT22;20413;50.782;7.152;2023-04-03T17:07:21;14.00;67.60
27409;DHT22;20413;50.782;7.152;2023-04-03T17:09:48;13.80;67.90
27409;DHT22;20413;50.782;7.152;2023-04-03T17:12:14;13.40;68.50
27409;DHT22;20413;50.782;7.152;2023-04-03T17:14:40;12.90;68.80
27409;DHT22;20413;50.782;7.152;2023-04-03T17:17:06;12.50;69.60
27409;DHT22;20413;50.782;7.152;2023-04-03T17:19:33;12.20;69.80
27409;DHT22;20413;50.782;7.152;2023-04-03T17:21:59;12.00;70.40
27409;DHT22;20413;50.782;7.152;2023-04-03T17:24:26;12.00;71.90
27409;DHT22;20413;50.782;7.152;2023-04-03T17:26:51;11.80;71.80
27409;DHT22;20413;50.782;7.152;2023-04-03T17:29:17;11.60;72.30
27409;DHT22;20413;50.782;7.152;2023-04-03T17:31:42;11.30;72.70
27409;DHT22;20413;50.782;7.152;2023-04-03T17:34:08;11.10;74.70
27409;DHT22;20413;50.782;7.152;2023-04-03T17:36:37;10.70;75.60
27409;DHT22;20413;50.782;7.152;2023-04-03T17:39:03;10.50;77.00
27409;DHT22;20413;50.782;7.152;2023-04-03T17:41:29;10.40;76.10
27409;DHT22;20413;50.782;7.152;2023-04-03T17:43:54;10.20;77.20
27409;DHT22;20413;50.782;7.152;2023-04-03T17:46:24;10.00;77.60
27409;DHT22;20413;50.782;7.152;2023-04-03T17:48:50;9.90;78.80
27409;DHT22;20413;50.782;7.152;2023-04-03T17:51:19;9.90;79.20
27409;DHT22;20413;50.782;7.152;2023-04-03T17:53:46;9.80;79.80
27409;DHT22;20413;50.782;7.152;2023-04-03T17:56:15;9.70;79.90
27409;DHT22;20413;50.782;7.152;2023-04-03T17:58:41;9.50;80.60
27409;DHT22;20413;50.782;7.152;2023-04-03T18:01:18;9.40;81.20
27409;DHT22;20413;50.782;7.152;2023-04-03T18:03:45;9.40;88.50
27409;DHT22;20413;50.782;7.152;2023-04-03T18:06:16;9.40;84.60
27409;DHT22;20413;50.782;7.152;2023-04-03T18:08:46;9.30;87.10
27409;DHT22;20413;50.782;7.152;2023-04-03T18:11:13;9.10;82.90
27409;DHT22;20413;50.782;7.152;2023-04-03T18:13:40;9.00;83.60
27409;DHT22;20413;50.782;7.152;2023-04-03T18:16:08;8.90;82.60
27409;DHT22;20413;50.782;7.152;2023-04-03T18:18:35;8.90;83.50
27409;DHT22;20413;50.782;7.152;2023-04-03T18:21:01;8.80;84.50
27409;DHT22;20413;50.782;7.152;2023-04-03T18:23:28;8.70;85.50
27409;DHT22;20413;50.782;7.152;2023-04-03T18:25:54;8.60;85.60
27409;DHT22;20413;50.782;7.152;2023-04-03T18:28:20;8.60;86.50
27409;DHT22;20413;50.782;7.152;2023-04-03T18:30:45;8.50;88.30
27409;DHT22;20413;50.782;7.152;2023-04-03T18:33:11;8.40;88.20
27409;DHT22;20413;50.782;7.152;2023-04-03T18:35:37;8.30;88.40
27409;DHT22;20413;50.782;7.152;2023-04-03T18:38:02;8.40;87.80
27409;DHT22;20413;50.782;7.152;2023-04-03T18:40:30;8.30;89.60
27409;DHT22;20413;50.782;7.152;2023-04-03T18:42:56;8.30;88.50
27409;DHT22;20413;50.782;7.152;2023-04-03T18:45:22;8.20;88.50
27409;DHT22;20413;50.782;7.152;2023-04-03T18:47:48;8.20;88.50
27409;DHT22;20413;50.782;7.152;2023-04-03T18:50:14;8.20;88.80
27409;DHT22;20413;50.782;7.152;2023-04-03T18:52:40;8.10;89.90
27409;DHT22;20413;50.782;7.152;2023-04-03T18:55:06;8.10;90.00
27409;DHT22;20413;50.782;7.152;2023-04-03T18:57:32;8.10;90.30
27409;DHT22;20413;50.782;7.152;2023-04-03T18:59:57;8.00;90.20
27409;DHT22;20413;50.782;7.152;2023-04-03T19:02:23;7.90;90.50
27409;DHT22;20413;50.782;7.152;2023-04-03T19:04:50;7.90;91.00
27409;DHT22;20413;50.782;7.152;2023-04-03T19:07:17;7.80;91.60
27409;DHT22;20413;50.782;7.152;2023-04-03T19:09:43;7.80;91.30
27409;DHT22;20413;50.782;7.152;2023-04-03T19:12:08;7.70;91.60
27409;DHT22;20413;50.782;7.152;2023-04-03T19:14:34;7.70;91.90
27409;DHT22;20413;50.782;7.152;2023-04-03T19:17:00;7.80;95.20
27409;DHT22;20413;50.782;7.152;2023-04-03T19:19:26;7.70;94.50
27409;DHT22;20413;50.782;7.152;2023-04-03T19:21:52;7.70;95.40
27409;DHT22;20413;50.782;7.152;2023-04-03T19:24:17;7.50;92.80
27409;DHT22;20413;50.782;7.152;2023-04-03T19:26:43;7.40;93.20
27409;DHT22;20413;50.782;7.152;2023-04-03T19:29:10;7.40;93.50
27409;DHT22;20413;50.782;7.152;2023-04-03T19:31:36;7.30;94.00
27409;DHT22;20413;50.782;7.152;2023-04-03T19:34:02;7.30;97.40